createdAt,value
2019-05-30T00:03:31.065Z,13.42
2019-05-30T00:08:26.697Z,13.41
2019-05-30T00:13:22.639Z,13.37
2019-05-30T00:18:18.814Z,13.23
2019-05-30T00:23:16.044Z,13.19
2019-05-30T00:28:11.403Z,13.31
2019-05-30T00:33:07.582Z,13.31
2019-05-30T00:38:03.904Z,13.25
2019-05-30T00:43:00.044Z,13.20
2019-05-30T00:47:56.003Z,13.22
2019-05-30T00:52:51.684Z,13.30
2019-05-30T00:57:49.180Z,13.41
2019-05-30T01:02:44.343Z,13.52
2019-05-30T01:07:40.829Z,13.44
2019-05-30T01:12:36.870Z,13.54
2019-05-30T01:17:32.895Z,13.53
2019-05-30T01:22:28.694Z,13.46
2019-05-30T01:27:24.365Z,13.70
2019-05-30T01:32:20.578Z,13.56
2019-05-30T01:37:17.187Z,13.50
2019-05-30T01:42:13.038Z,13.71
2019-05-30T01:47:08.921Z,13.70
2019-05-30T01:52:04.654Z,13.75
2019-05-30T01:57:02.536Z,13.85
2019-05-30T02:01:59.301Z,13.89
2019-05-30T02:06:55.651Z,13.96
2019-05-30T02:11:51.385Z,13.81
2019-05-30T02:16:47.321Z,13.79
2019-05-30T02:21:43.215Z,13.92
2019-05-30T02:26:38.951Z,13.96
2019-05-30T02:31:38.863Z,13.97
2019-05-30T02:36:34.324Z,14.00
2019-05-30T02:41:30.288Z,13.96
2019-05-30T02:46:26.337Z,14.04
2019-05-30T02:51:22.075Z,13.99
2019-05-30T02:56:17.980Z,14.05
2019-05-30T03:01:14.695Z,14.15
2019-05-30T03:06:11.864Z,14.14
2019-05-30T03:11:12.882Z,14.18
2019-05-30T03:16:10.749Z,14.22
2019-05-30T03:21:09.779Z,14.29
2019-05-30T03:26:09.148Z,14.30
2019-05-30T03:31:10.462Z,14.40
2019-05-30T03:36:08.961Z,14.45
2019-05-30T03:41:04.714Z,14.43
2019-05-30T03:46:01.363Z,14.58
2019-05-30T03:50:57.432Z,14.43
2019-05-30T03:55:53.281Z,14.51
2019-05-30T04:00:51.082Z,14.54
2019-05-30T04:05:46.637Z,14.59
2019-05-30T04:10:42.548Z,14.60
2019-05-30T04:15:39.508Z,14.54
2019-05-30T04:20:35.742Z,14.62
2019-05-30T04:25:31.543Z,14.65
2019-05-30T04:30:27.705Z,14.77
2019-05-30T04:35:23.356Z,14.58
2019-05-30T04:40:19.760Z,14.68
2019-05-30T04:45:17.921Z,14.79
2019-05-30T04:50:14.319Z,14.84
2019-05-30T04:55:10.703Z,14.82
2019-05-30T05:00:08.000Z,14.89
2019-05-30T05:05:03.883Z,14.86
2019-05-30T05:09:59.542Z,14.88
2019-05-30T05:14:55.426Z,15.02
2019-05-30T05:19:51.257Z,15.17
2019-05-30T05:24:47.250Z,15.17
2019-05-30T05:29:43.469Z,15.31
2019-05-30T05:34:40.188Z,15.37
2019-05-30T05:39:35.827Z,15.47
2019-05-30T05:44:31.674Z,15.54
2019-05-30T05:49:28.899Z,15.54
2019-05-30T05:54:25.049Z,15.57
2019-05-30T05:59:21.039Z,15.68
2019-05-30T06:04:19.079Z,15.58
2019-05-30T06:09:14.163Z,15.72
2019-05-30T06:14:10.170Z,15.70
2019-05-30T06:19:06.720Z,15.80
2019-05-30T06:24:02.914Z,15.75
2019-05-30T06:28:59.761Z,15.86
2019-05-30T06:33:56.553Z,15.91
2019-05-30T06:38:52.191Z,15.97
2019-05-30T06:43:47.953Z,15.98
2019-05-30T06:48:45.243Z,16.05
2019-05-30T06:53:40.779Z,16.10
2019-05-30T06:58:48.170Z,16.10
2019-05-30T07:03:37.058Z,16.20
2019-05-30T07:08:33.124Z,16.15
2019-05-30T07:13:29.277Z,16.23
2019-05-30T07:18:25.447Z,16.17
2019-05-30T07:23:23.737Z,16.26
2019-05-30T07:28:20.068Z,16.20
2019-05-30T07:33:16.137Z,16.17
2019-05-30T07:38:13.358Z,16.41
2019-05-30T07:43:08.797Z,16.56
2019-05-30T07:48:05.337Z,16.51
2019-05-30T07:53:02.499Z,16.71
2019-05-30T07:57:58.218Z,16.76
2019-05-30T08:02:54.195Z,16.89
2019-05-30T08:07:50.338Z,17.02
2019-05-30T08:12:46.224Z,17.16
2019-05-30T08:17:44.391Z,17.16
2019-05-30T08:22:40.226Z,17.09
2019-05-30T08:27:36.667Z,17.29
2019-05-30T08:32:32.691Z,17.51
2019-05-30T08:37:28.987Z,17.36
2019-05-30T08:42:27.784Z,17.24
2019-05-30T08:47:23.909Z,17.20
2019-05-30T08:52:19.936Z,17.20
2019-05-30T08:57:15.689Z,17.12
2019-05-30T09:02:12.633Z,16.99
2019-05-30T09:07:08.095Z,17.06
2019-05-30T09:12:03.911Z,17.23
2019-05-30T09:16:59.695Z,16.99
2019-05-30T09:21:55.565Z,16.91
2019-05-30T09:26:51.756Z,17.11
2019-05-30T09:31:48.893Z,16.99
2019-05-30T09:36:46.860Z,17.12
2019-05-30T09:41:42.229Z,17.11
2019-05-30T09:46:40.820Z,16.99
2019-05-30T09:51:36.367Z,16.78
2019-05-30T09:56:32.354Z,16.87
2019-05-30T10:01:28.754Z,17.01
2019-05-30T10:06:29.341Z,17.05
2019-05-30T10:11:23.778Z,17.02
2019-05-30T10:16:19.651Z,16.97
2019-05-30T10:21:15.370Z,17.06
2019-05-30T10:26:12.586Z,16.99
2019-05-30T10:31:09.686Z,17.08
2019-05-30T10:36:05.016Z,17.11
2019-05-30T10:41:01.464Z,16.97
2019-05-30T10:45:57.585Z,17.16
2019-05-30T10:50:54.449Z,17.33
2019-05-30T10:55:53.035Z,17.42
2019-05-30T11:00:49.102Z,17.52
2019-05-30T11:05:47.089Z,17.63
2019-05-30T11:10:42.961Z,17.57
2019-05-30T11:15:39.452Z,17.45
2019-05-30T11:20:36.298Z,17.57
2019-05-30T11:25:31.912Z,17.54
2019-05-30T11:30:28.901Z,17.56
2019-05-30T11:35:24.525Z,17.56
2019-05-30T11:40:20.710Z,17.39
2019-05-30T11:45:17.734Z,17.56
2019-05-30T11:50:13.524Z,17.71
2019-05-30T11:55:09.788Z,17.76
2019-05-30T12:00:05.784Z,17.71
2019-05-30T12:05:02.025Z,17.78
2019-05-30T12:09:59.006Z,17.90
2019-05-30T12:14:57.330Z,17.90
2019-05-30T12:19:53.461Z,17.85
2019-05-30T12:24:49.024Z,17.89
2019-05-30T12:29:45.148Z,18.03
2019-05-30T12:34:42.044Z,18.01
2019-05-30T12:39:37.592Z,18.01
2019-05-30T12:44:33.908Z,17.94
2019-05-30T12:49:30.619Z,18.03
2019-05-30T12:54:26.126Z,18.03
2019-05-30T12:59:22.240Z,18.01
2019-05-30T13:04:18.627Z,18.26
2019-05-30T13:09:14.757Z,18.33
2019-05-30T13:14:11.517Z,18.35
2019-05-30T13:19:06.866Z,18.20
2019-05-30T13:24:03.796Z,18.08
2019-05-30T13:29:00.395Z,18.11
2019-05-30T13:33:56.798Z,18.18
2019-05-30T13:38:52.545Z,18.15
2019-05-30T13:43:49.798Z,18.18
2019-05-30T13:48:45.706Z,18.40
2019-05-30T13:53:41.709Z,18.38
2019-05-30T13:58:37.564Z,18.25
2019-05-30T14:03:33.326Z,18.26
2019-05-30T14:08:41.245Z,18.34
2019-05-30T14:13:29.614Z,18.29
2019-05-30T14:18:25.662Z,18.55
2019-05-30T14:23:21.842Z,18.75
2019-05-30T14:28:17.829Z,18.73
2019-05-30T14:33:13.632Z,18.80
2019-05-30T14:38:10.670Z,18.88
2019-05-30T14:43:07.332Z,18.81
2019-05-30T14:48:04.474Z,18.96
2019-05-30T14:53:00.532Z,19.02
2019-05-30T14:57:58.220Z,18.90
2019-05-30T15:02:53.811Z,18.93
2019-05-30T15:07:49.707Z,18.89
2019-05-30T15:12:45.536Z,18.96
2019-05-30T15:17:41.376Z,18.77
2019-05-30T15:22:38.048Z,18.83
2019-05-30T15:27:33.865Z,18.78
2019-05-30T15:32:29.885Z,18.84
2019-05-30T15:37:26.085Z,19.04
2019-05-30T15:42:22.295Z,19.27
2019-05-30T15:47:18.714Z,19.26
2019-05-30T15:52:14.941Z,19.34
2019-05-30T15:57:11.185Z,19.37
2019-05-30T16:02:07.014Z,19.36
2019-05-30T16:07:02.791Z,19.41
2019-05-30T16:11:58.689Z,19.47
2019-05-30T16:16:54.602Z,19.54
2019-05-30T16:21:51.566Z,19.47
2019-05-30T16:26:47.314Z,19.54
2019-05-30T16:31:43.134Z,19.74
2019-05-30T16:36:40.314Z,19.70
2019-05-30T16:41:36.033Z,19.73
2019-05-30T16:46:32.139Z,19.77
2019-05-30T16:51:29.621Z,19.95
2019-05-30T16:56:26.647Z,19.96
2019-05-30T17:01:22.067Z,19.94
2019-05-30T17:06:18.020Z,19.84
2019-05-30T17:11:13.715Z,19.76
2019-05-30T17:16:09.445Z,19.70
2019-05-30T17:21:05.442Z,19.74
2019-05-30T17:26:01.223Z,19.77
2019-05-30T17:30:57.186Z,19.82
2019-05-30T17:35:53.013Z,19.95
2019-05-30T17:40:49.745Z,19.82
2019-05-30T17:45:45.974Z,19.76
2019-05-30T17:50:42.805Z,19.70
2019-05-30T17:55:38.414Z,19.74
2019-05-30T18:00:34.257Z,19.62
2019-05-30T18:05:30.954Z,19.54
2019-05-30T18:10:26.952Z,19.47
2019-05-30T18:15:25.025Z,19.51
2019-05-30T18:20:23.067Z,19.52
2019-05-30T18:25:18.711Z,19.58
2019-05-30T18:30:14.355Z,19.59
2019-05-30T18:35:10.278Z,19.48
2019-05-30T18:40:05.957Z,19.39
2019-05-30T18:45:02.509Z,19.31
2019-05-30T18:49:58.017Z,19.11
2019-05-30T18:54:53.754Z,19.14
2019-05-30T18:59:50.725Z,18.99
2019-05-30T19:04:46.849Z,19.02
2019-05-30T19:09:43.021Z,19.04
2019-05-30T19:14:38.805Z,19.02
2019-05-30T19:19:35.882Z,19.04
2019-05-30T19:24:32.119Z,18.89
2019-05-30T19:29:28.887Z,18.96
2019-05-30T19:34:24.524Z,18.81
2019-05-30T19:39:20.179Z,18.86
2019-05-30T19:44:15.973Z,18.77
2019-05-30T19:49:13.150Z,18.73
2019-05-30T19:54:08.689Z,18.65
2019-05-30T19:59:04.379Z,18.63
2019-05-30T20:04:00.416Z,18.62
2019-05-30T20:08:56.219Z,18.65
2019-05-30T20:13:52.151Z,18.56
2019-05-30T20:18:48.119Z,18.62
2019-05-30T20:23:52.619Z,18.53
2019-05-30T20:28:43.851Z,18.53
2019-05-30T20:33:40.617Z,18.56
2019-05-30T20:38:36.495Z,18.58
2019-05-30T20:43:33.290Z,18.65
2019-05-30T20:48:29.408Z,18.62
2019-05-30T20:53:25.109Z,18.59
2019-05-30T20:58:20.866Z,18.60
2019-05-30T21:03:16.822Z,18.50
2019-05-30T21:08:12.695Z,18.52
2019-05-30T21:13:08.516Z,18.44
2019-05-30T21:18:04.235Z,18.47
2019-05-30T21:22:59.996Z,18.37
2019-05-30T21:27:55.814Z,18.25
2019-05-30T21:32:52.905Z,18.25
2019-05-30T21:37:48.427Z,18.07
2019-05-30T21:42:58.259Z,18.03
2019-05-30T21:47:44.732Z,17.95
2019-05-30T21:52:41.536Z,18.08
2019-05-30T21:57:38.411Z,18.07
2019-05-30T22:02:34.018Z,18.04
2019-05-30T22:07:30.040Z,18.18
2019-05-30T22:12:26.242Z,18.18
2019-05-30T22:17:22.133Z,18.20
2019-05-30T22:22:17.925Z,18.18
2019-05-30T22:27:14.251Z,18.15
2019-05-30T22:32:10.006Z,18.13
2019-05-30T22:37:05.772Z,18.22
2019-05-30T22:42:01.710Z,18.22
2019-05-30T22:46:58.475Z,18.18
2019-05-30T22:51:54.233Z,18.20
2019-05-30T22:56:51.432Z,18.16
2019-05-30T23:01:47.097Z,18.11
2019-05-30T23:06:43.857Z,18.15
2019-05-30T23:11:39.385Z,18.13
2019-05-30T23:16:35.331Z,18.13
2019-05-30T23:21:31.180Z,18.04
2019-05-30T23:26:27.459Z,18.05
2019-05-30T23:31:23.299Z,18.08
2019-05-30T23:36:20.088Z,18.01
2019-05-30T23:41:16.030Z,18.08
2019-05-30T23:46:11.844Z,18.05
2019-05-30T23:51:07.891Z,18.03
2019-05-30T23:56:03.470Z,17.97
